Time;durP1;ratioP1;P1;durP2;ratioP2;P2;SDS_P1;SDS_P2;PMS_P1;PMS_P2;Temp;Humidity;BMP_temperature;BMP_pressure;BME280_temperature;BME280_humidity;BME280_pressure;Samples;Min_cycle;Max_cycle;Signal;HPM_P1;HPM_P2
2022/07/29 00:02:25;;;;;;;10.70;3.65;;;;;;;15.29;87.74;100299.91;5014564;28;20050;-75
2022/07/29 00:04:53;;;;;;;11.35;4.50;;;;;;;15.19;87.95;100304.25;5015147;28;20451;-75
2022/07/29 00:07:21;;;;;;;11.63;4.50;;;;;;;15.20;88.29;100306.00;5014905;28;20104;-75
2022/07/29 00:09:48;;;;;;;9.98;3.85;;;;;;;14.99;88.82;100305.59;5026365;28;20049;-75
2022/07/29 00:12:17;;;;;;;9.50;3.28;;;;;;;14.97;88.29;100303.00;5034684;28;20049;-75
2022/07/29 00:14:45;;;;;;;7.45;3.05;;;;;;;14.83;88.76;100289.44;5034480;28;20041;-75
2022/07/29 00:17:12;;;;;;;6.78;3.00;;;;;;;14.94;88.40;100294.16;5034076;28;20050;-76
2022/07/29 00:19:40;;;;;;;9.48;3.20;;;;;;;14.92;88.36;100288.84;5034644;28;20052;-75
2022/07/29 00:22:08;;;;;;;8.50;3.30;;;;;;;14.96;87.15;100295.81;5034358;28;20486;-77
2022/07/29 00:24:35;;;;;;;9.73;3.22;;;;;;;14.89;86.84;100298.06;5034017;28;20107;-76
2022/07/29 00:27:03;;;;;;;10.30;3.30;;;;;;;14.76;87.17;100292.59;5033585;28;20046;-75
2022/07/29 00:29:32;;;;;;;6.35;2.90;;;;;;;14.60;87.29;100303.56;5034429;28;20092;-75
2022/07/29 00:32:00;;;;;;;8.82;3.50;;;;;;;14.51;88.68;100309.63;5034028;28;20041;-75
2022/07/29 00:37:12;;;;;;;11.90;4.80;;;;;;;14.70;89.63;100303.88;5033943;28;20045;-76
2022/07/29 00:39:39;;;;;;;11.05;4.95;;;;;;;14.88;88.88;100298.16;5034090;28;20099;-75
2022/07/29 00:42:07;;;;;;;11.95;4.80;;;;;;;14.76;90.19;100289.00;5034289;28;20080;-76
2022/07/29 00:44:39;;;;;;;9.82;4.20;;;;;;;14.74;90.01;100289.09;5033634;28;20045;-75
2022/07/29 00:47:07;;;;;;;9.55;3.90;;;;;;;14.86;89.48;100292.84;5034035;28;20542;-76
2022/07/29 00:49:35;;;;;;;10.07;3.92;;;;;;;15.02;89.35;100294.50;5013856;28;20112;-76
2022/07/29 00:52:03;;;;;;;9.73;3.80;;;;;;;14.85;89.61;100296.53;5014306;28;20514;-75
2022/07/29 00:54:30;;;;;;;9.18;3.67;;;;;;;14.88;89.84;100295.44;5014065;28;20046;-75
2022/07/29 00:56:59;;;;;;;9.43;3.67;;;;;;;14.94;90.14;100294.16;5013966;28;20088;-75
2022/07/29 00:59:27;;;;;;;9.35;3.88;;;;;;;14.87;89.89;100290.97;5013748;28;20049;-76
2022/07/29 01:01:56;;;;;;;11.02;4.03;;;;;;;14.90;90.37;100290.81;5013942;28;20104;-76
2022/07/29 01:04:23;;;;;;;11.48;5.43;;;;;;;14.66;91.35;100296.88;5013949;28;20121;-76
2022/07/29 01:06:52;;;;;;;15.00;4.78;;;;;;;14.57;92.04;100302.91;5013974;28;20046;-75
2022/07/29 01:09:20;;;;;;;10.90;4.70;;;;;;;14.49;91.55;100297.97;5021453;28;20471;-76
2022/07/29 01:11:48;;;;;;;13.52;4.90;;;;;;;14.53;91.19;100295.94;5033497;28;20073;-75
2022/07/29 01:14:17;;;;;;;13.20;4.78;;;;;;;14.76;90.77;100289.84;5033122;28;20045;-76
2022/07/29 01:16:48;;;;;;;9.45;4.10;;;;;;;14.80;89.31;100295.09;5033568;28;20052;-76
2022/07/29 01:19:31;;;;;;;11.30;4.25;;;;;;;14.64;90.79;100294.22;5033614;28;20282;-77
2022/07/29 01:22:00;;;;;;;9.48;3.90;;;;;;;14.64;90.66;100298.81;5035334;28;20056;-75
2022/07/29 01:24:55;;;;;;;10.45;4.05;;;;;;;14.58;91.39;100296.50;5033540;28;20103;-76
2022/07/29 01:27:38;;;;;;;10.05;4.25;;;;;;;14.52;91.53;100294.19;5033482;28;20046;-76
2022/07/29 01:30:08;;;;;;;9.75;4.18;;;;;;;14.00;91.49;100302.88;5034840;28;20107;-76
2022/07/29 01:32:37;;;;;;;12.23;5.63;;;;;;;13.59;92.12;100306.34;5033436;28;20423;-76
2022/07/29 01:35:07;;;;;;;13.40;5.15;;;;;;;13.73;91.81;100303.66;5033401;28;20455;-75
2022/07/29 01:37:39;;;;;;;13.10;5.65;;;;;;;14.00;91.32;100300.19;5033300;28;20041;-76
2022/07/29 01:40:12;;;;;;;11.50;4.93;;;;;;;14.31;91.00;100297.31;5034865;28;20099;-75
2022/07/29 01:42:44;;;;;;;10.20;4.22;;;;;;;14.45;91.63;100299.16;5032782;28;20111;-75
2022/07/29 01:45:16;;;;;;;11.82;4.00;;;;;;;14.62;90.75;100292.59;5033905;28;20426;-76
2022/07/29 01:47:49;;;;;;;11.88;4.80;;;;;;;14.17;91.94;100293.66;5032765;28;20049;-76
2022/07/29 01:50:18;;;;;;;10.95;4.32;;;;;;;14.23;91.53;100300.53;5034162;28;20091;-75
2022/07/29 01:52:50;;;;;;;12.60;4.60;;;;;;;14.30;90.90;100309.16;5033164;28;20042;-75
2022/07/29 01:55:18;;;;;;;12.05;4.40;;;;;;;14.47;91.33;100303.50;5033715;28;20099;-75
2022/07/29 01:57:48;;;;;;;11.73;4.25;;;;;;;14.26;91.80;100305.75;5032464;28;20041;-75
2022/07/29 02:00:17;;;;;;;10.25;4.30;;;;;;;14.27;91.69;100314.81;5035661;28;20394;-75
2022/07/29 02:02:47;;;;;;;11.43;5.25;;;;;;;14.20;91.59;100306.16;5037252;28;20045;-76
2022/07/29 02:05:17;;;;;;;10.57;4.82;;;;;;;14.12;92.40;100311.22;5037058;28;20401;-75
2022/07/29 02:07:45;;;;;;;13.02;4.93;;;;;;;13.97;92.88;100308.53;5036834;28;20041;-76
2022/07/29 02:10:13;;;;;;;10.57;4.97;;;;;;;13.98;92.45;100314.81;5036785;28;20048;-76
2022/07/29 02:12:42;;;;;;;12.13;5.00;;;;;;;14.10;91.33;100321.31;5036482;28;20049;-76
2022/07/29 02:15:10;;;;;;;10.88;4.40;;;;;;;13.92;91.34;100324.22;5037056;28;20474;-76
2022/07/29 02:17:42;;;;;;;8.80;3.97;;;;;;;13.87;91.41;100313.66;5036820;28;20371;-76
2022/07/29 02:20:11;;;;;;;9.35;4.50;;;;;;;13.87;91.80;100316.38;5038232;28;20053;-76
2022/07/29 02:22:39;;;;;;;11.45;4.30;;;;;;;13.93;91.38;100309.69;5036748;28;20057;-76
2022/07/29 02:25:08;;;;;;;10.15;4.20;;;;;;;13.95;91.71;100315.88;5036591;28;20525;-76
2022/07/29 02:27:37;;;;;;;8.32;3.90;;;;;;;14.26;90.20;100326.63;5036204;28;20045;-75
2022/07/29 02:30:06;;;;;;;9.70;4.20;;;;;;;14.15;91.29;100319.16;5036558;28;20052;-76
2022/07/29 02:32:35;;;;;;;10.63;4.05;;;;;;;14.26;90.67;100321.19;5036520;28;20077;-76
2022/07/29 02:35:06;;;;;;;10.35;4.40;;;;;;;14.06;90.80;100317.91;5036689;28;20046;-76
2022/07/29 02:37:34;;;;;;;8.73;4.10;;;;;;;14.17;90.87;100317.22;5036208;28;20045;-76
2022/07/29 02:40:01;;;;;;;9.50;3.88;;;;;;;13.98;90.92;100320.25;5036500;28;20053;-75
2022/07/29 02:42:30;;;;;;;13.60;4.20;;;;;;;13.98;90.34;100326.56;5035927;28;20099;-75
2022/07/29 02:44:57;;;;;;;11.27;4.00;;;;;;;13.77;91.24;100320.63;5036266;28;20045;-76
2022/07/29 02:47:31;;;;;;;12.02;4.28;;;;;;;13.93;90.22;100320.53;5033798;28;20491;-76
2022/07/29 02:50:03;;;;;;;11.57;4.45;;;;;;;13.90;88.88;100320.75;5018178;28;20662;-76
2022/07/29 02:52:37;;;;;;;9.32;3.80;;;;;;;13.84;88.65;100316.56;5016862;28;20046;-76
2022/07/29 02:55:14;;;;;;;11.07;4.15;;;;;;;13.73;88.30;100324.50;5016657;28;20392;-75
2022/07/29 02:57:44;;;;;;;7.65;3.53;;;;;;;13.63;87.94;100326.91;5017231;28;20046;-75
2022/07/29 03:00:13;;;;;;;7.25;3.40;;;;;;;13.55;88.75;100332.78;5017562;28;20483;-75
2022/07/29 03:02:43;;;;;;;13.48;6.88;;;;;;;13.58;89.07;100334.47;5016068;28;20065;-75
2022/07/29 03:05:15;;;;;;;9.77;4.00;;;;;;;13.66;87.88;100329.44;5016456;28;20372;-76
2022/07/29 03:07:47;;;;;;;8.40;4.00;;;;;;;13.64;87.44;100334.09;5017024;28;20042;-75
2022/07/29 03:10:14;;;;;;;8.60;3.80;;;;;;;13.72;86.81;100334.47;5031342;28;20045;-76
2022/07/29 03:12:42;;;;;;;9.23;3.85;;;;;;;13.59;87.00;100334.34;5035774;28;20491;-76
2022/07/29 03:15:11;;;;;;;8.52;3.42;;;;;;;13.58;87.35;100331.75;5035734;28;20049;-75
2022/07/29 03:17:39;;;;;;;6.75;3.30;;;;;;;13.56;87.36;100337.25;5035632;28;20060;-75
2022/07/29 03:20:08;;;;;;;9.35;4.05;;;;;;;13.43;87.27;100337.13;5035627;28;20422;-75
2022/07/29 03:22:43;;;;;;;8.93;3.95;;;;;;;13.49;86.52;100337.75;5035561;28;20050;-76
2022/07/29 03:25:13;;;;;;;9.45;3.75;;;;;;;13.38;87.49;100346.50;5035699;28;20057;-76
2022/07/29 03:27:41;;;;;;;14.93;6.05;;;;;;;13.40;87.38;100339.13;5036349;28;20454;-75
2022/07/29 03:30:10;;;;;;;13.10;4.20;;;;;;;13.38;87.95;100338.34;5035443;28;20046;-75
2022/07/29 03:32:38;;;;;;;6.50;3.10;;;;;;;13.27;88.60;100339.88;5035450;28;20053;-76
2022/07/29 03:35:07;;;;;;;6.90;3.20;;;;;;;13.29;89.09;100342.47;5035381;28;20053;-75
2022/07/29 03:37:36;;;;;;;9.50;3.50;;;;;;;13.36;89.01;100343.84;5035124;28;20060;-76
2022/07/29 03:40:04;;;;;;;8.35;4.00;;;;;;;13.40;89.67;100333.72;5034861;28;20045;-75
2022/07/29 03:42:35;;;;;;;9.73;3.60;;;;;;;13.55;90.06;100334.66;5035124;28;20053;-76
2022/07/29 03:45:06;;;;;;;9.55;3.25;;;;;;;13.52;91.69;100335.69;5036015;28;20072;-75
2022/07/29 03:47:36;;;;;;;9.32;3.88;;;;;;;13.75;91.65;100330.72;5035882;28;20037;-76
2022/07/29 03:50:07;;;;;;;10.32;4.00;;;;;;;13.75;92.34;100326.13;5035383;28;20050;-75
2022/07/29 03:52:35;;;;;;;6.70;3.47;;;;;;;13.84;92.24;100330.13;5035240;28;20041;-75
2022/07/29 03:55:03;;;;;;;9.90;3.67;;;;;;;13.93;93.22;100327.81;5034908;28;20474;-75
2022/07/29 03:57:33;;;;;;;9.57;3.50;;;;;;;14.04;93.75;100326.16;5035090;28;20048;-76
2022/07/29 04:00:02;;;;;;;13.65;3.92;;;;;;;14.17;93.82;100328.97;5036590;28;20045;-76
2022/07/29 04:02:30;;;;;;;8.65;3.90;;;;;;;14.37;93.33;100334.97;5015115;28;20049;-76
2022/07/29 04:04:57;;;;;;;14.00;4.40;;;;;;;14.51;93.70;100322.34;5015147;28;20054;-77
2022/07/29 04:07:25;;;;;;;11.10;4.40;;;;;;;14.54;94.59;100327.56;5014076;28;20050;-77
2022/07/29 04:09:52;;;;;;;9.30;4.07;;;;;;;14.47;95.34;100327.94;5025199;28;20037;-77
2022/07/29 04:12:20;;;;;;;8.07;4.05;;;;;;;14.52;95.30;100333.09;5034626;28;20048;-77
2022/07/29 04:14:50;;;;;;;8.45;3.88;;;;;;;14.58;95.45;100331.84;5034734;28;20051;-76
2022/07/29 04:17:17;;;;;;;10.65;3.90;;;;;;;14.65;95.40;100325.03;5034503;28;20486;-76
2022/07/29 04:19:45;;;;;;;9.18;4.30;;;;;;;14.65;94.41;100330.47;5034567;28;20049;-76
2022/07/29 04:22:12;;;;;;;9.85;3.83;;;;;;;14.68;94.62;100327.53;5033266;28;20051;-76
2022/07/29 04:24:40;;;;;;;9.25;4.00;;;;;;;14.82;95.11;100329.38;5034396;28;20095;-75
2022/07/29 04:27:07;;;;;;;9.20;4.15;;;;;;;14.88;95.22;100331.69;5034289;28;20057;-76
2022/07/29 04:29:35;;;;;;;10.88;4.63;;;;;;;14.92;95.89;100325.06;5030692;28;20045;-75
2022/07/29 04:32:04;;;;;;;10.25;4.70;;;;;;;15.15;94.38;100319.94;5030678;28;20491;-76
2022/07/29 04:34:32;;;;;;;9.23;4.40;;;;;;;15.24;94.30;100326.56;5030111;28;20143;-75
2022/07/29 04:36:59;;;;;;;10.45;4.72;;;;;;;15.23;94.82;100321.25;5030457;28;20073;-76
2022/07/29 04:39:27;;;;;;;16.00;5.47;;;;;;;15.18;95.73;100324.28;5030454;28;20100;-75
2022/07/29 04:41:54;;;;;;;11.13;5.07;;;;;;;15.47;93.42;100315.97;5030345;28;20046;-74
2022/07/29 04:44:22;;;;;;;9.65;4.78;;;;;;;15.40;94.62;100314.66;5030602;28;20051;-74
2022/07/29 04:46:50;;;;;;;9.15;4.63;;;;;;;15.38;95.40;100312.00;5029995;28;20049;-74
2022/07/29 04:49:19;;;;;;;11.85;5.53;;;;;;;15.44;94.83;100313.44;5012702;28;20066;-73
2022/07/29 04:51:46;;;;;;;11.52;5.18;;;;;;;15.58;94.11;100313.34;5010227;28;20057;-73
2022/07/29 04:54:14;;;;;;;12.00;5.25;;;;;;;15.59;94.21;100317.81;5010541;28;20084;-74
2022/07/29 04:56:41;;;;;;;12.05;5.00;;;;;;;15.58;94.10;100312.50;5010287;28;20491;-74
2022/07/29 04:59:09;;;;;;;11.23;5.20;;;;;;;15.69;94.32;100312.59;5010740;28;20491;-75
2022/07/29 05:01:36;;;;;;;10.80;5.03;;;;;;;15.92;92.92;100323.78;5010539;28;20096;-73
2022/07/29 05:04:04;;;;;;;11.75;4.97;;;;;;;15.97;91.98;100320.69;5010486;28;20077;-75
2022/07/29 05:06:33;;;;;;;12.02;4.95;;;;;;;16.00;92.51;100318.63;5010085;28;20042;-74
2022/07/29 05:09:00;;;;;;;10.68;4.50;;;;;;;16.11;92.20;100314.25;5014865;28;20049;-73
2022/07/29 05:11:28;;;;;;;11.63;4.70;;;;;;;16.27;91.38;100317.59;5030240;28;20111;-75
2022/07/29 05:13:55;;;;;;;11.23;4.78;;;;;;;16.47;90.79;100320.75;5033450;28;20041;-73
2022/07/29 05:16:23;;;;;;;34.47;23.05;;;;;;;16.56;90.57;100316.47;5033376;28;20052;-72
2022/07/29 05:18:50;;;;;;;37.92;23.33;;;;;;;16.71;89.17;100320.78;5033363;28;20129;-73
2022/07/29 05:21:18;;;;;;;14.20;7.45;;;;;;;16.88;88.48;100326.81;5033209;28;20049;-73
2022/07/29 05:23:47;;;;;;;10.13;4.18;;;;;;;16.96;87.52;100329.84;5033437;28;20045;-73
2022/07/29 05:26:14;;;;;;;10.40;3.88;;;;;;;16.88;89.49;100335.88;5033353;28;20045;-73
2022/07/29 05:28:41;;;;;;;10.90;4.60;;;;;;;16.77;91.16;100328.50;5033445;28;20398;-73
2022/07/29 05:31:09;;;;;;;12.98;6.25;;;;;;;16.82;91.01;100332.72;5033421;28;20122;-73
2022/07/29 05:33:37;;;;;;;10.98;4.35;;;;;;;16.87;90.69;100336.84;5033191;28;20053;-73
2022/07/29 05:36:06;;;;;;;9.60;4.32;;;;;;;16.94;90.76;100327.22;5032880;28;20045;-73
2022/07/29 05:38:34;;;;;;;11.55;4.43;;;;;;;17.05;90.61;100325.56;5033101;28;20041;-73
2022/07/29 05:41:03;;;;;;;9.65;4.22;;;;;;;17.06;90.76;100321.84;5033312;28;20041;-73
2022/07/29 05:43:30;;;;;;;8.80;3.95;;;;;;;17.14;90.96;100321.28;5033078;28;20486;-73
2022/07/29 05:45:58;;;;;;;12.45;5.03;;;;;;;17.21;90.55;100325.25;5033256;28;20332;-73
2022/07/29 05:48:26;;;;;;;16.40;7.28;;;;;;;17.27;90.99;100326.66;5032766;28;20064;-73
2022/07/29 05:50:53;;;;;;;41.75;29.00;;;;;;;17.35;90.62;100326.94;5032835;28;20052;-73
2022/07/29 05:53:21;;;;;;;68.15;55.53;;;;;;;17.42;90.29;100324.63;5033076;28;20052;-73
2022/07/29 05:55:49;;;;;;;27.67;21.60;;;;;;;17.52;89.33;100328.34;5032920;28;20103;-73
2022/07/29 05:58:18;;;;;;;11.45;6.07;;;;;;;17.64;88.97;100323.81;5033105;28;20124;-73
2022/07/29 06:00:45;;;;;;;11.30;4.68;;;;;;;17.88;87.47;100329.19;5033114;28;20057;-73
2022/07/29 06:03:13;;;;;;;10.30;3.90;;;;;;;18.03;86.11;100323.50;5033007;28;20057;-73
2022/07/29 06:05:40;;;;;;;8.95;3.60;;;;;;;18.01;85.84;100326.38;5032998;28;20054;-73
2022/07/29 06:08:08;;;;;;;8.98;3.40;;;;;;;18.23;84.63;100327.38;5033093;28;20526;-73
2022/07/29 06:10:36;;;;;;;10.98;3.30;;;;;;;18.28;84.18;100316.91;5032771;28;20051;-74
2022/07/29 06:13:03;;;;;;;10.98;3.20;;;;;;;18.34;84.14;100327.34;5032882;28;20049;-73
2022/07/29 06:15:33;;;;;;;7.85;3.00;;;;;;;18.49;83.21;100327.97;5032839;28;20041;-73
2022/07/29 06:18:00;;;;;;;8.80;2.90;;;;;;;18.61;82.17;100330.72;5032371;28;20072;-73
2022/07/29 06:20:29;;;;;;;7.88;3.20;;;;;;;18.69;81.45;100333.66;5032632;28;20202;-73
2022/07/29 06:22:57;;;;;;;8.10;3.10;;;;;;;18.74;80.98;100330.53;5032769;28;20049;-73
2022/07/29 06:25:24;;;;;;;8.50;2.83;;;;;;;18.85;80.14;100330.53;5032689;28;20379;-73
2022/07/29 06:27:52;;;;;;;7.72;2.90;;;;;;;18.89;79.65;100331.13;5032734;28;20046;-72
2022/07/29 06:30:19;;;;;;;9.80;3.05;;;;;;;18.93;79.84;100338.06;5032794;28;20449;-73
2022/07/29 06:32:49;;;;;;;8.07;2.97;;;;;;;18.88;80.62;100337.59;5032710;28;20053;-75
2022/07/29 06:35:16;;;;;;;7.22;2.88;;;;;;;18.96;80.25;100332.34;5032692;28;20107;-73
2022/07/29 06:37:44;;;;;;;8.00;3.05;;;;;;;18.95;80.18;100330.59;5029676;28;20041;-71
2022/07/29 06:42:57;;;;;;;6.40;2.95;;;;;;;19.17;79.86;100321.47;5030163;28;20049;-73
2022/07/29 06:45:25;;;;;;;7.95;2.65;;;;;;;19.28;79.44;100315.09;5030026;28;20049;-75
2022/07/29 06:47:54;;;;;;;7.60;2.50;;;;;;;19.40;78.26;100318.66;5031492;28;20121;-72
2022/07/29 06:50:22;;;;;;;3.60;2.10;;;;;;;19.48;77.98;100316.09;5033544;28;20052;-72
2022/07/29 06:52:49;;;;;;;4.43;2.20;;;;;;;19.47;77.63;100321.75;5032852;28;20045;-71
2022/07/29 06:55:19;;;;;;;5.97;2.58;;;;;;;19.54;77.46;100314.72;5032279;28;20081;-73
2022/07/29 06:57:46;;;;;;;5.85;2.30;;;;;;;19.64;76.92;100312.91;5035549;28;20495;-75
2022/07/29 07:00:15;;;;;;;4.30;2.25;;;;;;;19.73;76.35;100313.09;5034324;28;20550;-75
2022/07/29 07:02:42;;;;;;;4.50;2.20;;;;;;;19.74;76.35;100314.84;5035703;28;20049;-75
2022/07/29 07:05:11;;;;;;;6.35;2.50;;;;;;;19.79;75.45;100318.91;5035945;28;20056;-75
2022/07/29 07:07:39;;;;;;;7.45;2.50;;;;;;;19.85;75.70;100306.56;5035907;28;20049;-77
2022/07/29 07:10:07;;;;;;;5.28;2.33;;;;;;;19.94;76.20;100310.38;5035462;28;20510;-74
2022/07/29 07:12:35;;;;;;;6.57;2.30;;;;;;;20.04;76.01;100304.94;5035694;28;20453;-78
2022/07/29 07:15:02;;;;;;;4.93;2.35;;;;;;;20.09;76.31;100299.91;5035910;28;20380;-75
2022/07/29 07:17:30;;;;;;;5.30;2.25;;;;;;;20.22;75.34;100303.31;5034775;28;20072;-79
2022/07/29 07:19:58;;;;;;;4.32;2.38;;;;;;;20.27;74.65;100302.88;5035617;28;20045;-76
2022/07/29 07:22:27;;;;;;;4.70;2.30;;;;;;;20.30;74.74;100304.50;5035767;28;20430;-79
2022/07/29 07:24:54;;;;;;;7.53;2.30;;;;;;;20.32;74.54;100310.69;5035591;28;20506;-78
2022/07/29 07:27:22;;;;;;;9.27;2.40;;;;;;;20.35;74.71;100304.94;5034483;28;20053;-78
2022/07/29 07:29:49;;;;;;;5.18;2.30;;;;;;;20.39;75.09;100304.50;5034105;28;20550;-81
2022/07/29 07:32:17;;;;;;;7.60;2.33;;;;;;;20.48;75.49;100308.28;5031055;28;20067;-79
2022/07/29 07:34:44;;;;;;;6.38;2.22;;;;;;;20.54;75.50;100315.09;5034005;28;20068;-78
2022/07/29 07:37:12;;;;;;;4.40;2.15;;;;;;;20.62;75.85;100320.75;5033926;28;20046;-78
2022/07/29 07:39:41;;;;;;;5.13;2.20;;;;;;;20.79;74.62;100321.09;5033927;28;20049;-78
2022/07/29 07:42:11;;;;;;;4.22;2.17;;;;;;;20.77;74.50;100318.47;5033966;28;20053;-75
2022/07/29 07:44:38;;;;;;;6.93;2.28;;;;;;;20.86;73.86;100318.66;5031588;28;20045;-72
2022/07/29 07:47:06;;;;;;;4.63;2.13;;;;;;;20.96;72.07;100319.53;5033786;28;20123;-83
2022/07/29 07:49:34;;;;;;;4.85;2.15;;;;;;;21.05;72.61;100318.72;5033557;28;20082;-73
2022/07/29 07:52:01;;;;;;;5.55;2.00;;;;;;;21.10;72.08;100316.41;5034075;28;20064;-75
2022/07/29 07:54:29;;;;;;;5.53;2.10;;;;;;;21.12;71.78;100321.72;5033974;28;20113;-72
2022/07/29 07:56:58;;;;;;;5.03;1.90;;;;;;;21.11;71.69;100320.88;5029879;28;20096;-73
2022/07/29 07:59:25;;;;;;;4.25;1.85;;;;;;;21.23;69.95;100315.22;5033384;28;20042;-73
2022/07/29 08:01:53;;;;;;;5.32;1.92;;;;;;;21.20;70.47;100323.75;5033590;28;20613;-75
2022/07/29 08:04:21;;;;;;;3.55;1.60;;;;;;;21.35;67.59;100321.47;5033586;28;20053;-74
2022/07/29 08:06:49;;;;;;;4.07;1.70;;;;;;;21.28;67.80;100323.91;5033508;28;20487;-77
2022/07/29 08:09:17;;;;;;;4.60;1.90;;;;;;;21.34;68.42;100315.09;5030647;28;20468;-73
2022/07/29 08:11:44;;;;;;;3.42;1.80;;;;;;;21.42;68.81;100328.97;5031046;28;20072;-81
2022/07/29 08:14:13;;;;;;;3.25;1.85;;;;;;;21.48;68.82;100324.75;5030366;28;20072;-73
2022/07/29 08:16:41;;;;;;;4.90;2.00;;;;;;;21.62;67.02;100328.06;5029834;28;20056;-77
2022/07/29 08:19:08;;;;;;;4.40;2.17;;;;;;;21.62;65.65;100320.69;5011500;28;20050;-86
2022/07/29 08:21:36;;;;;;;4.18;1.70;;;;;;;21.64;64.19;100324.19;5011540;28;20448;-81
2022/07/29 08:26:49;;;;;;;4.03;1.90;;;;;;;21.66;65.67;100329.56;5012700;28;20050;-75
2022/07/29 08:29:18;;;;;;;4.70;1.48;;;;;;;21.67;64.96;100332.16;5010493;28;20050;-76
2022/07/29 08:31:46;;;;;;;3.03;1.60;;;;;;;21.76;63.47;100324.03;5010989;28;20054;-77
2022/07/29 08:34:14;;;;;;;3.63;1.60;;;;;;;21.74;61.10;100326.06;5010978;28;20124;-74
2022/07/29 08:36:41;;;;;;;2.50;1.60;;;;;;;21.76;62.40;100326.78;5011313;28;20057;-75
2022/07/29 08:39:09;;;;;;;4.30;1.60;;;;;;;21.88;60.77;100322.88;5010497;28;20049;-76
2022/07/29 08:41:36;;;;;;;2.90;1.50;;;;;;;21.88;60.64;100317.38;5013256;28;20045;-75
2022/07/29 08:44:05;;;;;;;2.80;1.35;;;;;;;22.05;60.05;100315.72;5029563;28;20560;-74
2022/07/29 08:46:34;;;;;;;4.95;1.98;;;;;;;22.04;59.99;100308.50;5029379;28;20152;-74
2022/07/29 08:49:03;;;;;;;5.20;1.70;;;;;;;22.13;60.40;100314.97;5028833;28;20061;-76
2022/07/29 08:51:32;;;;;;;5.60;1.55;;;;;;;22.14;61.11;100313.94;5029794;28;20514;-74
2022/07/29 08:53:59;;;;;;;2.47;1.40;;;;;;;22.22;61.38;100307.69;5029923;28;20052;-74
2022/07/29 08:56:27;;;;;;;3.47;1.40;;;;;;;22.28;61.76;100313.47;5027146;28;20053;-74
2022/07/29 08:58:55;;;;;;;6.72;1.60;;;;;;;22.43;60.64;100316.56;5029286;28;20045;-76
2022/07/29 09:01:24;;;;;;;3.83;1.50;;;;;;;22.49;57.91;100309.63;5027542;28;20050;-76
2022/07/29 09:03:56;;;;;;;3.95;1.50;;;;;;;22.49;58.00;100304.13;5027087;28;20042;-75
2022/07/29 09:06:27;;;;;;;2.75;1.58;;;;;;;22.47;58.22;100303.41;5030740;28;20085;-75
2022/07/29 09:08:56;;;;;;;6.38;1.70;;;;;;;22.54;58.61;100303.66;5028733;28;20414;-75
2022/07/29 09:11:23;;;;;;;1.92;1.42;;;;;;;22.58;59.28;100305.94;5029629;28;20041;-75
2022/07/29 09:13:51;;;;;;;4.22;1.60;;;;;;;22.71;58.16;100300.06;5026514;28;20045;-75
2022/07/29 09:16:19;;;;;;;4.10;1.60;;;;;;;22.74;56.34;100298.03;5028926;28;20045;-75
2022/07/29 09:18:47;;;;;;;4.57;1.50;;;;;;;22.72;57.31;100298.19;5027130;28;20356;-76
2022/07/29 09:24:06;;;;;;;2.92;1.50;;;;;;;22.85;57.95;100295.09;5028701;28;20060;-75
2022/07/29 09:26:35;;;;;;;1.92;1.40;;;;;;;22.99;57.08;100300.03;5027093;28;20045;-74
2022/07/29 09:29:10;;;;;;;3.15;1.40;;;;;;;23.01;56.98;100300.75;5028830;28;20045;-75
2022/07/29 09:31:40;;;;;;;4.10;1.60;;;;;;;23.04;56.48;100290.44;5027731;28;20060;-75
2022/07/29 09:34:08;;;;;;;5.40;1.50;;;;;;;23.13;55.85;100295.88;5029273;28;20132;-76
2022/07/29 09:36:45;;;;;;;4.75;1.60;;;;;;;23.15;57.18;100288.31;5029006;28;20046;-75
2022/07/29 09:39:13;;;;;;;3.53;1.58;;;;;;;23.15;57.90;100293.81;5029185;28;20441;-76
2022/07/29 09:41:49;;;;;;;6.65;1.67;;;;;;;23.21;55.33;100286.78;5028689;28;20535;-75
2022/07/29 09:44:17;;;;;;;2.58;1.48;;;;;;;23.29;55.85;100289.69;5026459;28;20057;-75
2022/07/29 09:46:58;;;;;;;5.00;1.63;;;;;;;23.29;56.18;100286.03;5029241;28;20383;-75
2022/07/29 09:49:26;;;;;;;4.32;1.50;;;;;;;23.31;55.68;100280.41;5027511;28;20406;-76
2022/07/29 09:52:04;;;;;;;5.70;1.50;;;;;;;23.35;54.48;100288.16;5028559;28;20041;-75
2022/07/29 09:54:36;;;;;;;4.95;1.40;;;;;;;23.43;54.25;100282.72;5029579;28;20089;-75
2022/07/29 09:57:05;;;;;;;4.32;1.40;;;;;;;23.54;54.07;100281.59;5029680;28;20041;-75
2022/07/29 09:59:33;;;;;;;2.88;1.50;;;;;;;23.53;54.51;100268.84;5029095;28;20045;-75
2022/07/29 10:02:01;;;;;;;3.03;1.30;;;;;;;23.58;55.10;100271.13;5029037;28;20046;-75
2022/07/29 10:04:39;;;;;;;5.13;1.50;;;;;;;23.57;54.54;100266.63;5028756;28;20045;-76
2022/07/29 10:07:09;;;;;;;2.25;1.40;;;;;;;23.67;55.21;100259.13;5028478;28;20133;-75
2022/07/29 10:09:36;;;;;;;3.55;1.33;;;;;;;23.72;55.69;100261.41;5028802;28;20045;-75
2022/07/29 10:12:07;;;;;;;3.60;1.55;;;;;;;23.80;55.69;100255.94;5031782;28;20042;-76
2022/07/29 10:14:34;;;;;;;3.75;1.58;;;;;;;23.91;52.28;100253.91;5033113;28;20046;-75
2022/07/29 10:17:02;;;;;;;6.38;1.33;;;;;;;23.87;53.18;100253.41;5032896;28;20087;-74
2022/07/29 10:19:31;;;;;;;63.70;4.22;;;;;;;23.95;53.17;100256.19;5032881;28;20045;-74
2022/07/29 10:21:59;;;;;;;12.88;1.75;;;;;;;24.01;53.39;100247.28;5036326;28;20049;-74
2022/07/29 10:24:29;;;;;;;50.03;3.90;;;;;;;24.07;53.49;100242.16;5036100;28;20049;-75
2022/07/29 10:26:58;;;;;;;11.18;1.58;;;;;;;24.17;53.02;100245.63;5037705;28;20045;-75
2022/07/29 10:29:26;;;;;;;9.75;1.50;;;;;;;24.22;53.50;100231.34;5038067;28;20438;-75
2022/07/29 10:32:03;;;;;;;4.05;1.33;;;;;;;24.26;53.15;100236.34;5036442;28;20099;-75
2022/07/29 10:34:38;;;;;;;2.55;1.50;;;;;;;24.29;53.25;100236.03;5036664;28;20049;-72
2022/07/29 10:37:14;;;;;;;3.63;1.40;;;;;;;24.33;51.88;100231.03;5036563;28;20128;-74
2022/07/29 10:39:54;;;;;;;1.80;1.30;;;;;;;24.37;51.87;100232.44;5036853;28;20045;-75
2022/07/29 10:42:23;;;;;;;6.15;1.27;;;;;;;24.49;50.89;100240.41;5037100;28;20056;-75
2022/07/29 10:44:52;;;;;;;2.22;1.20;;;;;;;24.42;47.57;100229.19;5036226;28;20044;-74
2022/07/29 10:47:23;;;;;;;2.13;1.13;;;;;;;24.51;46.85;100227.31;5034874;28;20045;-75
2022/07/29 10:50:01;;;;;;;6.50;1.50;;;;;;;24.57;47.34;100224.72;5016418;28;20108;-75
2022/07/29 10:52:57;;;;;;;3.53;1.40;;;;;;;24.57;47.01;100230.25;5016932;28;20049;-74
2022/07/29 10:55:39;;;;;;;4.03;1.25;;;;;;;24.54;48.40;100219.53;5017903;28;20046;-74
2022/07/29 10:58:14;;;;;;;2.17;1.23;;;;;;;24.58;49.33;100220.94;5017971;28;20046;-74
2022/07/29 11:00:42;;;;;;;3.90;1.27;;;;;;;24.67;49.24;100227.34;5016219;28;20045;-74
2022/07/29 11:03:10;;;;;;;2.63;1.10;;;;;;;24.70;49.58;100215.09;5016319;28;20046;-75
2022/07/29 11:05:55;;;;;;;1.92;1.20;;;;;;;24.78;48.77;100211.50;5016034;28;20042;-73
2022/07/29 11:08:25;;;;;;;3.50;1.40;;;;;;;24.83;49.48;100218.25;5015620;28;20053;-75
2022/07/29 11:11:29;;;;;;;3.78;1.10;;;;;;;24.84;48.62;100214.47;5032908;28;20128;-75
2022/07/29 11:13:57;;;;;;;9.07;1.40;;;;;;;24.91;49.48;100216.53;5034189;28;20073;-74
2022/07/29 11:16:25;;;;;;;1.88;1.20;;;;;;;24.99;49.41;100213.75;5035647;28;20045;-74
2022/07/29 11:19:21;;;;;;;3.95;1.23;;;;;;;25.03;48.90;100212.38;5035703;28;20045;-74
2022/07/29 11:21:49;;;;;;;4.93;1.70;;;;;;;25.03;46.83;100206.84;5035485;28;20053;-74
2022/07/29 11:24:18;;;;;;;6.65;1.40;;;;;;;25.08;46.81;100211.88;5035188;28;20053;-74
2022/07/29 11:27:07;;;;;;;6.82;1.33;;;;;;;25.10;44.85;100204.28;5035402;28;20505;-75
2022/07/29 11:29:36;;;;;;;2.38;1.20;;;;;;;25.06;46.90;100209.28;5037054;28;20097;-75
2022/07/29 11:32:11;;;;;;;5.28;1.30;;;;;;;25.13;46.96;100206.69;5035096;28;20053;-76
2022/07/29 11:34:40;;;;;;;3.50;1.55;;;;;;;25.15;47.24;100204.63;5029141;28;20103;-78
2022/07/29 11:37:19;;;;;;;3.13;1.60;;;;;;;25.08;46.76;100200.81;5030905;28;20418;-76
2022/07/29 11:39:48;;;;;;;4.20;1.40;;;;;;;25.05;46.75;100201.19;5030680;28;20068;-75
2022/07/29 11:42:42;;;;;;;2.72;1.10;;;;;;;25.03;46.04;100206.84;5031337;28;20049;-77
2022/07/29 11:45:13;;;;;;;2.38;1.17;;;;;;;25.03;46.49;100195.81;5031536;28;20045;-76